createdAt,value
2022-08-23T00:01:27.940Z,18.60
2022-08-23T00:04:04.258Z,18.50
2022-08-23T00:06:32.403Z,18.50
2022-08-23T00:08:59.679Z,18.50
2022-08-23T00:11:31.238Z,18.50
2022-08-23T00:14:02.818Z,18.50
2022-08-23T00:16:30.043Z,18.40
2022-08-23T00:18:57.314Z,18.40
2022-08-23T00:21:25.077Z,18.50
2022-08-23T00:23:52.205Z,18.50
2022-08-23T00:26:21.001Z,18.50
2022-08-23T00:28:49.854Z,18.50
2022-08-23T00:31:18.777Z,18.50
2022-08-23T00:33:46.254Z,18.50
2022-08-23T00:36:13.607Z,18.40
2022-08-23T00:38:41.068Z,18.40
2022-08-23T00:41:08.530Z,18.40
2022-08-23T00:43:58.618Z,18.40
2022-08-23T00:46:56.244Z,18.40
2022-08-23T00:49:24.538Z,18.30
2022-08-23T00:51:57.821Z,18.20
2022-08-23T00:54:27.567Z,18.20
2022-08-23T00:56:58.025Z,18.20
2022-08-23T00:59:26.160Z,18.10
2022-08-23T01:01:53.689Z,18.00
2022-08-23T01:04:21.373Z,18.00
2022-08-23T01:07:02.943Z,18.00
2022-08-23T01:09:30.505Z,18.00
2022-08-23T01:12:08.899Z,18.00
2022-08-23T01:15:16.873Z,18.00
2022-08-23T01:17:53.900Z,17.90
2022-08-23T01:20:27.135Z,17.90
2022-08-23T01:23:02.727Z,17.90
2022-08-23T01:25:33.397Z,17.90
2022-08-23T01:28:01.483Z,17.90
2022-08-23T01:30:32.907Z,18.00
2022-08-23T01:33:07.626Z,17.90
2022-08-23T01:35:42.129Z,17.90
2022-08-23T01:38:11.621Z,17.90
2022-08-23T01:40:40.061Z,17.80
2022-08-23T01:43:08.219Z,17.80
2022-08-23T01:45:36.300Z,17.70
2022-08-23T01:48:04.182Z,17.70
2022-08-23T01:50:31.612Z,17.70
2022-08-23T01:52:59.707Z,17.60
2022-08-23T01:55:27.761Z,17.60
2022-08-23T01:57:57.682Z,17.60
2022-08-23T02:00:30.700Z,17.60
2022-08-23T02:03:00.127Z,17.60
2022-08-23T02:05:28.394Z,17.70
2022-08-23T02:07:56.458Z,17.60
2022-08-23T02:10:23.913Z,17.50
2022-08-23T02:12:51.027Z,17.50
2022-08-23T02:15:19.255Z,17.40
2022-08-23T02:17:46.769Z,17.30
2022-08-23T02:20:14.560Z,17.30
2022-08-23T02:22:41.977Z,17.40
2022-08-23T02:25:09.643Z,17.30
2022-08-23T02:27:37.081Z,17.30
2022-08-23T02:30:05.311Z,17.30
2022-08-23T02:32:32.487Z,17.20
2022-08-23T02:35:04.565Z,17.30
2022-08-23T02:37:34.545Z,17.20
2022-08-23T02:40:01.958Z,17.20
2022-08-23T02:42:29.571Z,17.10
2022-08-23T02:44:56.852Z,17.10
2022-08-23T02:47:24.054Z,17.00
2022-08-23T02:49:52.185Z,17.00
2022-08-23T02:52:19.563Z,17.00
2022-08-23T02:54:46.662Z,17.00
2022-08-23T02:57:13.833Z,17.00
2022-08-23T02:59:42.194Z,17.00
2022-08-23T03:02:09.770Z,17.00
2022-08-23T03:04:37.113Z,17.00
2022-08-23T03:07:04.700Z,16.90
2022-08-23T03:09:31.963Z,16.90
2022-08-23T03:11:59.311Z,16.90
2022-08-23T03:14:27.878Z,16.80
2022-08-23T03:16:58.294Z,16.70
2022-08-23T03:19:25.815Z,16.70
2022-08-23T03:21:53.018Z,16.60
2022-08-23T03:24:22.428Z,16.60
2022-08-23T03:26:49.650Z,16.60
2022-08-23T03:29:16.755Z,16.60
2022-08-23T03:31:43.986Z,16.60
2022-08-23T03:34:12.562Z,16.70
2022-08-23T03:36:39.863Z,16.70
2022-08-23T03:39:07.605Z,16.70
2022-08-23T03:41:34.918Z,16.80
2022-08-23T03:44:02.373Z,16.80
2022-08-23T03:46:33.770Z,16.80
2022-08-23T03:49:02.854Z,16.80
2022-08-23T03:51:31.482Z,16.80
2022-08-23T03:54:00.493Z,16.80
2022-08-23T03:56:29.928Z,16.70
2022-08-23T03:58:59.317Z,16.70
2022-08-23T04:01:28.815Z,16.70
2022-08-23T04:04:02.509Z,16.70
2022-08-23T04:06:32.197Z,16.70
2022-08-23T04:09:00.175Z,16.80
2022-08-23T04:11:28.134Z,16.80
2022-08-23T04:13:55.686Z,16.80
2022-08-23T04:16:22.899Z,16.80
2022-08-23T04:18:50.052Z,16.70
2022-08-23T04:21:22.375Z,16.70
2022-08-23T04:23:49.874Z,16.70
2022-08-23T04:26:16.921Z,16.70
2022-08-23T04:28:47.225Z,16.70
2022-08-23T04:31:14.711Z,16.80
2022-08-23T04:33:42.375Z,16.70
2022-08-23T04:36:09.503Z,16.60
2022-08-23T04:38:36.577Z,16.50
2022-08-23T04:41:22.297Z,16.50
2022-08-23T04:43:49.619Z,16.40
2022-08-23T04:46:17.163Z,16.40
2022-08-23T04:48:47.091Z,16.30
2022-08-23T04:51:14.469Z,16.40
2022-08-23T04:53:42.762Z,16.60
2022-08-23T04:56:10.913Z,16.70
2022-08-23T04:58:38.961Z,17.00
2022-08-23T05:01:08.253Z,17.40
2022-08-23T05:03:35.665Z,17.60
2022-08-23T05:06:04.481Z,17.90
2022-08-23T05:08:32.261Z,18.10
2022-08-23T05:11:07.049Z,18.20
2022-08-23T05:13:37.584Z,18.40
2022-08-23T05:16:06.302Z,18.60
2022-08-23T05:18:34.854Z,18.70
2022-08-23T05:21:03.035Z,18.90
2022-08-23T05:23:32.321Z,19.00
2022-08-23T05:26:01.121Z,19.20
2022-08-23T05:28:31.187Z,19.40
2022-08-23T05:31:11.402Z,19.70
2022-08-23T05:33:39.577Z,19.80
2022-08-23T05:36:07.393Z,20.10
2022-08-23T05:38:36.720Z,20.50
2022-08-23T05:41:05.343Z,21.30
2022-08-23T05:43:34.744Z,22.20
2022-08-23T05:46:12.167Z,22.90
2022-08-23T05:48:42.162Z,23.40
2022-08-23T05:51:26.118Z,23.60
2022-08-23T05:53:54.644Z,23.60
2022-08-23T05:56:31.799Z,23.30
2022-08-23T05:59:01.862Z,23.00
2022-08-23T06:01:30.805Z,22.70
2022-08-23T06:04:06.098Z,22.70
2022-08-23T06:06:37.024Z,22.60
2022-08-23T06:09:07.027Z,22.70
2022-08-23T06:11:34.625Z,22.70
2022-08-23T06:14:04.447Z,22.70
2022-08-23T06:16:38.257Z,22.90
2022-08-23T06:19:07.414Z,23.10
2022-08-23T06:21:35.114Z,23.50
2022-08-23T06:24:02.853Z,23.60
2022-08-23T06:26:33.082Z,24.20
2022-08-23T06:29:05.326Z,24.90
2022-08-23T06:31:51.267Z,25.50
2022-08-23T06:34:23.019Z,24.90
2022-08-23T06:36:55.417Z,24.60
2022-08-23T06:39:25.552Z,24.50
2022-08-23T06:41:58.302Z,24.30
2022-08-23T06:44:25.613Z,24.30
2022-08-23T06:46:53.008Z,24.30
2022-08-23T06:49:20.121Z,25.10
2022-08-23T06:51:50.594Z,25.70
2022-08-23T06:54:23.096Z,25.70
2022-08-23T06:56:54.251Z,25.30
2022-08-23T06:59:21.924Z,25.30
2022-08-23T07:02:04.382Z,25.50
2022-08-23T07:04:33.746Z,25.00
2022-08-23T07:07:02.467Z,24.90
2022-08-23T07:09:30.957Z,25.50
2022-08-23T07:11:59.230Z,25.80
2022-08-23T07:14:28.157Z,26.10
2022-08-23T07:17:01.369Z,26.00
2022-08-23T07:19:31.145Z,26.20
2022-08-23T07:22:00.486Z,26.20
2022-08-23T07:24:32.882Z,25.50
2022-08-23T07:27:01.638Z,24.80
2022-08-23T07:29:30.505Z,24.50
2022-08-23T07:31:58.288Z,24.10
2022-08-23T07:34:26.374Z,23.60
2022-08-23T07:36:54.297Z,23.40
2022-08-23T07:39:23.295Z,23.50
2022-08-23T07:41:52.826Z,23.70
2022-08-23T07:44:20.379Z,23.90
2022-08-23T07:46:53.063Z,23.90
2022-08-23T07:49:20.291Z,24.10
2022-08-23T07:51:49.949Z,24.20
2022-08-23T07:54:19.376Z,24.30
2022-08-23T07:56:46.652Z,24.30
2022-08-23T07:59:14.473Z,24.40
2022-08-23T08:01:44.036Z,24.20
2022-08-23T08:04:12.567Z,24.00
2022-08-23T08:06:46.485Z,23.80
2022-08-23T08:09:13.910Z,23.90
2022-08-23T08:11:43.484Z,23.90
2022-08-23T08:14:11.563Z,23.90
2022-08-23T08:16:42.513Z,24.00
2022-08-23T08:19:11.721Z,24.20
2022-08-23T08:21:42.670Z,24.20
2022-08-23T08:24:13.178Z,24.30
2022-08-23T08:26:42.146Z,24.50
2022-08-23T08:29:12.748Z,24.50
2022-08-23T08:31:43.140Z,24.50
2022-08-23T08:34:12.165Z,24.70
2022-08-23T08:36:49.354Z,24.60
2022-08-23T08:39:20.936Z,24.60
2022-08-23T08:42:07.047Z,24.60
2022-08-23T08:44:55.486Z,24.60
2022-08-23T08:47:48.346Z,24.60
2022-08-23T08:50:24.403Z,24.60
2022-08-23T08:52:57.319Z,24.60
2022-08-23T08:55:40.355Z,24.60
2022-08-23T08:58:12.904Z,24.80
2022-08-23T09:00:47.077Z,24.80
2022-08-23T09:03:20.849Z,24.90
2022-08-23T09:06:04.066Z,25.00
2022-08-23T09:09:03.113Z,25.10
2022-08-23T09:11:39.614Z,25.00
2022-08-23T09:14:25.511Z,24.80
2022-08-23T09:16:55.262Z,24.90
2022-08-23T09:19:25.156Z,25.00
2022-08-23T09:22:11.515Z,25.00
2022-08-23T09:24:39.679Z,25.00
2022-08-23T09:27:11.972Z,25.20
2022-08-23T09:29:50.978Z,25.20
2022-08-23T09:32:27.614Z,25.40
2022-08-23T09:35:25.905Z,25.50
2022-08-23T09:38:03.687Z,25.60
2022-08-23T09:40:45.595Z,25.50
2022-08-23T09:43:27.801Z,25.50
2022-08-23T09:45:54.847Z,25.60
2022-08-23T09:48:43.075Z,25.70
2022-08-23T09:51:23.563Z,25.90
2022-08-23T09:54:05.978Z,25.90
2022-08-23T09:56:42.451Z,25.80
2022-08-23T09:59:27.257Z,25.90
2022-08-23T10:01:57.150Z,26.00
2022-08-23T10:04:30.544Z,26.00
2022-08-23T10:06:58.009Z,25.70
2022-08-23T10:09:27.162Z,25.80
2022-08-23T10:11:55.913Z,26.00
2022-08-23T10:14:26.797Z,26.30
2022-08-23T10:17:19.462Z,26.30
2022-08-23T10:20:11.070Z,25.90
2022-08-23T10:22:49.675Z,26.10
2022-08-23T10:25:45.339Z,26.20
2022-08-23T10:28:39.618Z,26.40
2022-08-23T10:31:25.248Z,26.60
2022-08-23T10:34:12.891Z,26.50
2022-08-23T10:37:00.228Z,26.50
2022-08-23T10:39:29.956Z,26.50
2022-08-23T10:42:16.261Z,26.80
2022-08-23T10:45:04.099Z,26.90
2022-08-23T10:47:59.039Z,27.10
2022-08-23T10:50:28.522Z,27.30
2022-08-23T10:53:09.449Z,27.30
2022-08-23T10:56:03.301Z,27.50
2022-08-23T10:59:01.315Z,27.70
2022-08-23T11:01:46.142Z,27.50
2022-08-23T11:04:37.988Z,27.60
2022-08-23T11:07:28.197Z,27.80
2022-08-23T11:10:25.118Z,27.80
2022-08-23T11:12:59.777Z,27.90
2022-08-23T11:15:47.539Z,28.40
2022-08-23T11:18:33.120Z,28.70
2022-08-23T11:21:18.508Z,29.20
2022-08-23T11:23:54.590Z,29.30
2022-08-23T11:26:27.935Z,29.60
2022-08-23T11:29:17.430Z,30.00
2022-08-23T11:32:17.369Z,29.90
2022-08-23T11:35:09.052Z,30.30
2022-08-23T11:37:52.084Z,30.10
2022-08-23T11:40:39.642Z,30.00
2022-08-23T11:43:37.344Z,30.60
2022-08-23T11:46:23.247Z,31.10
2022-08-23T11:49:14.487Z,31.00
2022-08-23T11:52:00.810Z,31.20
2022-08-23T11:54:34.132Z,31.10
2022-08-23T11:57:10.273Z,31.30
2022-08-23T11:59:58.429Z,31.60
2022-08-23T12:02:40.850Z,31.50
2022-08-23T12:05:20.485Z,32.40
2022-08-23T12:08:02.834Z,32.50
2022-08-23T12:10:42.284Z,32.90
2022-08-23T12:13:22.098Z,33.00
2022-08-23T12:16:17.698Z,33.60
2022-08-23T12:18:48.052Z,33.10
2022-08-23T12:21:41.930Z,33.30
2022-08-23T12:24:25.253Z,33.40
2022-08-23T12:27:10.898Z,33.40
2022-08-23T12:29:52.950Z,33.60
2022-08-23T12:32:44.327Z,34.10
2022-08-23T12:35:40.367Z,34.10
2022-08-23T12:38:15.488Z,34.20
2022-08-23T12:40:50.112Z,34.20
2022-08-23T12:43:29.497Z,34.50
2022-08-23T12:46:01.261Z,34.00
2022-08-23T12:48:32.230Z,33.20
2022-08-23T12:51:03.953Z,32.60
2022-08-23T12:53:40.262Z,32.90
2022-08-23T12:56:31.321Z,33.40
2022-08-23T12:59:05.065Z,33.50
2022-08-23T13:01:36.790Z,34.10
2022-08-23T13:04:11.770Z,33.60
2022-08-23T13:06:48.025Z,34.10
2022-08-23T13:09:17.468Z,34.00
2022-08-23T13:11:46.249Z,33.90
2022-08-23T13:14:37.430Z,34.40
2022-08-23T13:17:31.001Z,34.70
2022-08-23T13:20:01.576Z,35.00
2022-08-23T13:22:31.275Z,34.90
2022-08-23T13:25:24.458Z,34.40
2022-08-23T13:27:45.245Z,34.40
2022-08-23T13:30:15.869Z,34.40
2022-08-23T13:33:15.093Z,33.70
2022-08-23T13:35:50.344Z,34.20
2022-08-23T13:38:32.318Z,34.50
2022-08-23T13:41:13.950Z,34.90
2022-08-23T13:43:44.099Z,34.60
2022-08-23T13:46:26.557Z,35.10
2022-08-23T13:49:32.272Z,35.50
2022-08-23T13:52:11.940Z,35.50
2022-08-23T13:54:51.071Z,34.30
2022-08-23T13:57:21.733Z,33.90
2022-08-23T13:59:48.812Z,33.90
2022-08-23T14:02:17.743Z,34.60
2022-08-23T14:04:45.357Z,34.40
2022-08-23T14:07:12.708Z,33.50
2022-08-23T14:09:40.051Z,33.10
2022-08-23T14:12:12.829Z,32.50
2022-08-23T14:14:41.350Z,32.50
2022-08-23T14:17:11.322Z,33.70
2022-08-23T14:22:28.089Z,34.10
2022-08-23T14:24:55.123Z,33.50
2022-08-23T14:27:22.275Z,34.30
2022-08-23T14:29:49.331Z,34.90
2022-08-23T14:32:16.435Z,34.80
2022-08-23T14:34:43.955Z,35.30
2022-08-23T14:39:58.913Z,35.20
2022-08-23T14:42:26.146Z,33.60
2022-08-23T14:44:53.222Z,33.40
2022-08-23T14:47:20.330Z,33.20
2022-08-23T14:49:49.868Z,32.70
2022-08-23T14:52:20.367Z,32.70
2022-08-23T14:54:47.457Z,33.50
2022-08-23T14:57:14.627Z,34.20
2022-08-23T14:59:41.721Z,34.50
2022-08-23T15:02:12.511Z,34.30
2022-08-23T15:04:40.378Z,34.30
2022-08-23T15:07:17.696Z,33.80
2022-08-23T15:09:47.147Z,33.30
2022-08-23T15:15:01.680Z,31.90
2022-08-23T15:17:31.637Z,31.30
2022-08-23T15:19:59.689Z,31.60
2022-08-23T15:22:29.822Z,32.20
2022-08-23T15:24:57.532Z,32.90
2022-08-23T15:27:25.524Z,33.40
2022-08-23T15:29:52.817Z,33.50
2022-08-23T15:32:22.273Z,33.90
2022-08-23T15:34:50.679Z,34.10
2022-08-23T15:37:21.097Z,34.00
2022-08-23T15:39:48.789Z,34.20
2022-08-23T15:42:20.516Z,33.70
2022-08-23T15:44:48.759Z,34.00
2022-08-23T15:47:33.548Z,34.40
2022-08-23T15:50:01.475Z,34.40
2022-08-23T15:52:28.904Z,33.50
2022-08-23T15:54:55.990Z,33.80
2022-08-23T15:57:28.768Z,34.00
2022-08-23T15:59:57.389Z,34.00
2022-08-23T16:02:24.818Z,33.90
2022-08-23T16:04:52.060Z,33.50
2022-08-23T16:07:19.339Z,33.10
2022-08-23T16:09:47.278Z,33.20
2022-08-23T16:12:14.473Z,33.10
2022-08-23T16:14:41.891Z,32.70
2022-08-23T16:17:09.711Z,32.50
2022-08-23T16:19:36.857Z,32.50
2022-08-23T16:22:04.162Z,32.60
2022-08-23T16:24:31.468Z,32.20
2022-08-23T16:26:58.851Z,32.40
2022-08-23T16:29:27.417Z,32.30
2022-08-23T16:31:54.490Z,31.80
2022-08-23T16:34:22.272Z,31.70
2022-08-23T16:36:55.348Z,31.40
2022-08-23T16:39:22.781Z,31.00
2022-08-23T16:41:49.775Z,30.90
2022-08-23T16:44:17.751Z,30.80
2022-08-23T16:46:45.377Z,30.80
2022-08-23T16:49:14.847Z,30.50
2022-08-23T16:51:43.422Z,30.40
2022-08-23T16:54:10.823Z,30.30
2022-08-23T16:56:39.904Z,30.30
2022-08-23T16:59:09.817Z,30.10
2022-08-23T17:01:53.329Z,29.80
2022-08-23T17:04:24.431Z,29.70
2022-08-23T17:06:54.098Z,29.40
2022-08-23T17:09:22.600Z,29.40
2022-08-23T17:11:52.947Z,29.40
2022-08-23T17:14:21.402Z,29.30
2022-08-23T17:16:48.646Z,29.20
2022-08-23T17:19:15.835Z,29.20
2022-08-23T17:21:43.629Z,29.10
2022-08-23T17:24:10.686Z,29.00
2022-08-23T17:26:37.933Z,28.90
2022-08-23T17:29:05.270Z,28.80
2022-08-23T17:31:32.466Z,28.70
2022-08-23T17:34:03.426Z,28.60
2022-08-23T17:36:40.458Z,28.50
2022-08-23T17:39:10.633Z,28.40
2022-08-23T17:41:40.967Z,28.10
2022-08-23T17:44:10.617Z,28.00
2022-08-23T17:46:38.757Z,27.70
2022-08-23T17:49:07.030Z,27.60
2022-08-23T17:51:36.097Z,27.50
2022-08-23T17:54:04.119Z,27.40
2022-08-23T17:56:31.293Z,27.30
2022-08-23T17:58:58.413Z,27.10
2022-08-23T18:01:25.559Z,26.90
2022-08-23T18:03:52.938Z,26.80
2022-08-23T18:06:20.121Z,26.60
2022-08-23T18:08:47.532Z,26.50
2022-08-23T18:11:15.969Z,26.50
2022-08-23T18:13:43.121Z,26.30
2022-08-23T18:16:10.767Z,26.30
2022-08-23T18:18:38.134Z,26.20
2022-08-23T18:21:07.854Z,26.10
2022-08-23T18:23:35.361Z,26.10
2022-08-23T18:26:33.955Z,26.10
2022-08-23T18:29:01.387Z,26.00
2022-08-23T18:31:28.580Z,25.90
2022-08-23T18:34:00.246Z,25.80
2022-08-23T18:36:28.772Z,25.60
2022-08-23T18:38:55.903Z,25.50
2022-08-23T18:41:24.210Z,25.40
2022-08-23T18:43:53.342Z,25.20
2022-08-23T18:46:20.742Z,25.20
2022-08-23T18:48:47.920Z,25.10
2022-08-23T18:51:23.348Z,25.00
2022-08-23T18:53:51.234Z,24.90
2022-08-23T18:56:18.445Z,24.90
2022-08-23T18:58:45.629Z,24.80
2022-08-23T19:01:31.465Z,24.70
2022-08-23T19:04:00.403Z,24.60
2022-08-23T19:06:28.071Z,24.50
2022-08-23T19:08:56.113Z,24.50
2022-08-23T19:11:23.617Z,24.50
2022-08-23T19:13:51.230Z,24.40
2022-08-23T19:16:21.571Z,24.30
2022-08-23T19:18:50.383Z,24.30
2022-08-23T19:21:20.866Z,24.20
2022-08-23T19:23:50.434Z,24.20
2022-08-23T19:26:19.939Z,24.20
2022-08-23T19:28:48.271Z,24.10
2022-08-23T19:31:15.563Z,24.00
2022-08-23T19:33:42.823Z,24.00
2022-08-23T19:36:23.634Z,23.90
2022-08-23T19:38:57.463Z,23.80
2022-08-23T19:41:24.597Z,23.80
2022-08-23T19:43:52.215Z,23.70
2022-08-23T19:46:20.470Z,23.70
2022-08-23T19:48:48.220Z,23.70
2022-08-23T19:51:17.416Z,23.60
2022-08-23T19:54:04.714Z,23.50
2022-08-23T19:56:58.654Z,23.40
2022-08-23T19:59:28.749Z,23.40
2022-08-23T20:01:57.829Z,23.40
2022-08-23T20:04:29.099Z,23.30
2022-08-23T20:06:57.841Z,23.30
2022-08-23T20:09:26.236Z,23.40
2022-08-23T20:11:53.275Z,23.40
2022-08-23T20:14:25.061Z,23.30
2022-08-23T20:16:53.455Z,23.30
2022-08-23T20:19:21.694Z,23.30
2022-08-23T20:21:49.012Z,23.20
2022-08-23T20:24:16.937Z,23.20
2022-08-23T20:26:45.367Z,23.10
2022-08-23T20:29:19.579Z,23.10
2022-08-23T20:31:56.231Z,23.10
2022-08-23T20:34:27.060Z,23.20
2022-08-23T20:36:56.437Z,23.20
2022-08-23T20:39:25.478Z,23.20
2022-08-23T20:41:53.924Z,23.20
2022-08-23T20:44:26.071Z,23.20
2022-08-23T20:46:55.954Z,23.20
2022-08-23T20:49:26.060Z,23.20
2022-08-23T20:51:54.216Z,23.10
2022-08-23T20:54:24.563Z,23.00
2022-08-23T20:56:52.683Z,23.00
2022-08-23T20:59:20.790Z,23.00
2022-08-23T21:01:51.574Z,23.00
2022-08-23T21:04:19.379Z,23.00
2022-08-23T21:06:50.034Z,23.10
2022-08-23T21:09:20.427Z,23.00
2022-08-23T21:11:50.790Z,23.00
2022-08-23T21:14:18.893Z,23.00
2022-08-23T21:16:47.297Z,23.00
2022-08-23T21:19:15.500Z,23.00
2022-08-23T21:21:43.115Z,23.00
2022-08-23T21:24:11.015Z,22.90
2022-08-23T21:26:38.831Z,22.80
2022-08-23T21:29:07.890Z,22.70
2022-08-23T21:31:35.902Z,22.60
2022-08-23T21:34:03.189Z,22.60
2022-08-23T21:36:30.611Z,22.50
2022-08-23T21:38:57.661Z,22.50
2022-08-23T21:41:37.704Z,22.50
2022-08-23T21:44:07.366Z,22.50
2022-08-23T21:46:34.851Z,22.50
2022-08-23T21:49:03.804Z,22.70
2022-08-23T21:51:31.251Z,22.80
2022-08-23T21:54:02.243Z,22.90
2022-08-23T21:56:30.292Z,22.90
2022-08-23T21:59:01.287Z,22.90
2022-08-23T22:01:30.471Z,22.90
2022-08-23T22:03:57.729Z,22.90
2022-08-23T22:06:25.170Z,22.80
2022-08-23T22:08:52.263Z,22.70
2022-08-23T22:11:19.816Z,22.60
2022-08-23T22:13:48.213Z,22.50
2022-08-23T22:16:15.373Z,22.50
2022-08-23T22:18:43.001Z,22.50
2022-08-23T22:21:10.953Z,22.50
2022-08-23T22:23:43.442Z,22.60
2022-08-23T22:26:12.068Z,22.60
2022-08-23T22:28:39.918Z,22.70
2022-08-23T22:31:08.633Z,22.70
2022-08-23T22:33:35.697Z,22.60
2022-08-23T22:36:08.729Z,22.60
2022-08-23T22:38:35.967Z,22.50
2022-08-23T22:41:03.081Z,22.50
2022-08-23T22:43:30.386Z,22.50
2022-08-23T22:46:00.767Z,22.40
2022-08-23T22:48:30.887Z,22.40
2022-08-23T22:51:12.561Z,22.40
2022-08-23T22:53:42.384Z,22.30
2022-08-23T22:56:12.428Z,22.20
2022-08-23T22:58:42.764Z,22.20
2022-08-23T23:01:17.361Z,22.20
2022-08-23T23:03:46.090Z,22.20
2022-08-23T23:06:15.479Z,22.10
2022-08-23T23:08:42.641Z,22.00
2022-08-23T23:11:11.548Z,21.80
2022-08-23T23:13:39.614Z,21.70
2022-08-23T23:16:09.723Z,21.70
2022-08-23T23:18:37.493Z,21.60
2022-08-23T23:21:05.857Z,21.60
2022-08-23T23:23:34.399Z,21.60
2022-08-23T23:26:02.534Z,21.50
2022-08-23T23:28:30.055Z,21.50
2022-08-23T23:30:58.075Z,21.50
2022-08-23T23:33:25.282Z,21.40
2022-08-23T23:35:52.362Z,21.40
2022-08-23T23:38:19.530Z,21.30
2022-08-23T23:40:46.877Z,21.20
2022-08-23T23:43:14.134Z,21.10
2022-08-23T23:45:41.646Z,21.00
2022-08-23T23:48:09.968Z,21.00
2022-08-23T23:50:45.158Z,20.90
2022-08-23T23:53:14.524Z,20.70
2022-08-23T23:55:42.610Z,20.60
2022-08-23T23:58:10.581Z,20.40
